Canistota, South Dakota
Current Conditions -  °F | °C
As of 3:29 PM on Monday 22 Dec 2014 (Local Time) from KFSD Reporting Station
Drizzle Drizzle  
Wind Chill: 40°   Ceiling: 300
Heat Index: 40°   Visibility: 0.75mi
Dew Point: 38°   Wind: 0mph
Humidity: 93%   Direction: NA
Pressure: 29.41"   Gusts: NA
Location:  43.6°N, 97.29°W
Report Text: KFSD 222129Z 00000KT 3/4SM R03/5500VP6000FT -DZ BR BKN003 OVC007 04/03 A2941 RMK AO2 P0000 T00440033
Loading
Personal Weather Stations






























Interactive Weather Map New forecast layout! Learn more

10-Day Weather Forecast

Advertisements
Track Severe Weather on mobile